sensor_id;sensor_type;location;lat;lon;timestamp;P1;P2;P0
70241;PMS5003;57631;52.218;0.108;2022-07-25T00:02:23;7;5;
70241;PMS5003;57631;52.218;0.108;2022-07-25T00:04:48;5;5;
70241;PMS5003;57631;52.218;0.108;2022-07-25T00:07:14;7;6;
70241;PMS5003;57631;52.218;0.108;2022-07-25T00:09:39;4;4;
70241;PMS5003;57631;52.218;0.108;2022-07-25T00:12:05;11;6;
70241;PMS5003;57631;52.218;0.108;2022-07-25T00:14:30;9;7;
70241;PMS5003;57631;52.218;0.108;2022-07-25T00:16:55;6;4;
70241;PMS5003;57631;52.218;0.108;2022-07-25T00:19:21;6;4;
70241;PMS5003;57631;52.218;0.108;2022-07-25T00:21:46;6;6;
70241;PMS5003;57631;52.218;0.108;2022-07-25T00:24:11;6;4;
70241;PMS5003;57631;52.218;0.108;2022-07-25T00:26:37;4;4;
70241;PMS5003;57631;52.218;0.108;2022-07-25T00:29:02;8;5;
70241;PMS5003;57631;52.218;0.108;2022-07-25T00:31:28;5;5;
70241;PMS5003;57631;52.218;0.108;2022-07-25T00:33:53;4;4;
70241;PMS5003;57631;52.218;0.108;2022-07-25T00:36:18;5;5;
70241;PMS5003;57631;52.218;0.108;2022-07-25T00:38:44;5;3;
70241;PMS5003;57631;52.218;0.108;2022-07-25T00:41:09;6;4;
70241;PMS5003;57631;52.218;0.108;2022-07-25T00:43:34;5;4;
70241;PMS5003;57631;52.218;0.108;2022-07-25T00:46:00;5;3;
70241;PMS5003;57631;52.218;0.108;2022-07-25T00:48:26;10;8;
70241;PMS5003;57631;52.218;0.108;2022-07-25T00:50:51;7;3;
70241;PMS5003;57631;52.218;0.108;2022-07-25T00:53:17;4;2;
70241;PMS5003;57631;52.218;0.108;2022-07-25T00:55:42;5;4;
70241;PMS5003;57631;52.218;0.108;2022-07-25T00:58:08;6;5;
70241;PMS5003;57631;52.218;0.108;2022-07-25T01:00:33;3;3;
70241;PMS5003;57631;52.218;0.108;2022-07-25T01:02:58;4;4;
70241;PMS5003;57631;52.218;0.108;2022-07-25T01:05:24;8;6;
70241;PMS5003;57631;52.218;0.108;2022-07-25T01:07:49;4;4;
70241;PMS5003;57631;52.218;0.108;2022-07-25T01:10:14;7;4;
70241;PMS5003;57631;52.218;0.108;2022-07-25T01:12:44;4;4;
70241;PMS5003;57631;52.218;0.108;2022-07-25T01:15:07;4;4;
70241;PMS5003;57631;52.218;0.108;2022-07-25T01:17:31;6;5;
70241;PMS5003;57631;52.218;0.108;2022-07-25T01:19:57;5;2;
70241;PMS5003;57631;52.218;0.108;2022-07-25T01:22:22;4;4;
70241;PMS5003;57631;52.218;0.108;2022-07-25T01:24:47;5;3;
70241;PMS5003;57631;52.218;0.108;2022-07-25T01:27:13;5;4;
70241;PMS5003;57631;52.218;0.108;2022-07-25T01:29:38;4;4;
70241;PMS5003;57631;52.218;0.108;2022-07-25T01:32:04;3;3;
70241;PMS5003;57631;52.218;0.108;2022-07-25T01:34:29;6;5;
70241;PMS5003;57631;52.218;0.108;2022-07-25T01:36:55;4;4;
70241;PMS5003;57631;52.218;0.108;2022-07-25T01:39:20;3;3;
70241;PMS5003;57631;52.218;0.108;2022-07-25T01:41:45;7;4;
70241;PMS5003;57631;52.218;0.108;2022-07-25T01:44:10;7;4;
70241;PMS5003;57631;52.218;0.108;2022-07-25T01:46:36;4;3;
70241;PMS5003;57631;52.218;0.108;2022-07-25T01:49:01;4;4;
70241;PMS5003;57631;52.218;0.108;2022-07-25T01:51:26;6;5;
70241;PMS5003;57631;52.218;0.108;2022-07-25T01:53:52;6;4;
70241;PMS5003;57631;52.218;0.108;2022-07-25T01:56:17;8;5;
70241;PMS5003;57631;52.218;0.108;2022-07-25T01:58:43;5;5;
70241;PMS5003;57631;52.218;0.108;2022-07-25T02:01:08;8;3;
70241;PMS5003;57631;52.218;0.108;2022-07-25T02:03:33;6;6;
70241;PMS5003;57631;52.218;0.108;2022-07-25T02:06:00;4;4;
70241;PMS5003;57631;52.218;0.108;2022-07-25T02:08:24;6;6;
70241;PMS5003;57631;52.218;0.108;2022-07-25T02:10:50;6;5;
70241;PMS5003;57631;52.218;0.108;2022-07-25T02:13:15;5;5;
70241;PMS5003;57631;52.218;0.108;2022-07-25T02:15:40;6;5;
70241;PMS5003;57631;52.218;0.108;2022-07-25T02:18:06;5;5;
70241;PMS5003;57631;52.218;0.108;2022-07-25T02:20:31;6;5;
70241;PMS5003;57631;52.218;0.108;2022-07-25T02:22:57;4;4;
70241;PMS5003;57631;52.218;0.108;2022-07-25T02:25:22;4;4;
70241;PMS5003;57631;52.218;0.108;2022-07-25T02:27:47;4;4;
70241;PMS5003;57631;52.218;0.108;2022-07-25T02:30:13;10;5;
70241;PMS5003;57631;52.218;0.108;2022-07-25T02:32:38;5;5;
70241;PMS5003;57631;52.218;0.108;2022-07-25T02:35:04;4;4;
70241;PMS5003;57631;52.218;0.108;2022-07-25T02:37:29;5;4;
70241;PMS5003;57631;52.218;0.108;2022-07-25T02:39:54;5;4;
70241;PMS5003;57631;52.218;0.108;2022-07-25T02:42:20;7;5;
70241;PMS5003;57631;52.218;0.108;2022-07-25T02:44:45;7;5;
70241;PMS5003;57631;52.218;0.108;2022-07-25T02:47:11;5;5;
70241;PMS5003;57631;52.218;0.108;2022-07-25T02:49:36;4;4;
70241;PMS5003;57631;52.218;0.108;2022-07-25T02:52:01;4;4;
70241;PMS5003;57631;52.218;0.108;2022-07-25T02:54:26;7;5;
70241;PMS5003;57631;52.218;0.108;2022-07-25T02:56:52;6;5;
70241;PMS5003;57631;52.218;0.108;2022-07-25T02:59:17;6;5;
70241;PMS5003;57631;52.218;0.108;2022-07-25T03:01:43;5;5;
70241;PMS5003;57631;52.218;0.108;2022-07-25T03:04:08;7;4;
70241;PMS5003;57631;52.218;0.108;2022-07-25T03:06:33;6;6;
70241;PMS5003;57631;52.218;0.108;2022-07-25T03:08:59;4;4;
70241;PMS5003;57631;52.218;0.108;2022-07-25T03:11:24;6;5;
70241;PMS5003;57631;52.218;0.108;2022-07-25T03:13:50;7;4;
70241;PMS5003;57631;52.218;0.108;2022-07-25T03:16:15;5;5;
70241;PMS5003;57631;52.218;0.108;2022-07-25T03:18:41;3;3;
70241;PMS5003;57631;52.218;0.108;2022-07-25T03:21:06;5;5;
70241;PMS5003;57631;52.218;0.108;2022-07-25T03:23:31;4;4;
70241;PMS5003;57631;52.218;0.108;2022-07-25T03:25:57;5;5;
70241;PMS5003;57631;52.218;0.108;2022-07-25T03:28:22;6;4;
70241;PMS5003;57631;52.218;0.108;2022-07-25T03:30:48;5;5;
70241;PMS5003;57631;52.218;0.108;2022-07-25T03:33:13;5;5;
70241;PMS5003;57631;52.218;0.108;2022-07-25T03:35:38;8;7;
70241;PMS5003;57631;52.218;0.108;2022-07-25T03:38:04;5;4;
70241;PMS5003;57631;52.218;0.108;2022-07-25T03:40:29;5;5;
70241;PMS5003;57631;52.218;0.108;2022-07-25T03:42:54;5;5;
70241;PMS5003;57631;52.218;0.108;2022-07-25T03:45:20;4;4;
70241;PMS5003;57631;52.218;0.108;2022-07-25T03:47:45;8;5;
70241;PMS5003;57631;52.218;0.108;2022-07-25T03:50:10;5;5;
70241;PMS5003;57631;52.218;0.108;2022-07-25T03:52:36;8;6;
70241;PMS5003;57631;52.218;0.108;2022-07-25T03:55:01;5;5;
70241;PMS5003;57631;52.218;0.108;2022-07-25T03:57:27;5;5;
70241;PMS5003;57631;52.218;0.108;2022-07-25T03:59:52;7;6;
70241;PMS5003;57631;52.218;0.108;2022-07-25T04:02:17;5;4;
70241;PMS5003;57631;52.218;0.108;2022-07-25T04:04:43;9;6;
70241;PMS5003;57631;52.218;0.108;2022-07-25T04:07:08;3;3;
70241;PMS5003;57631;52.218;0.108;2022-07-25T04:09:34;11;6;
70241;PMS5003;57631;52.218;0.108;2022-07-25T04:11:59;8;5;
70241;PMS5003;57631;52.218;0.108;2022-07-25T04:14:25;7;7;
70241;PMS5003;57631;52.218;0.108;2022-07-25T04:16:50;6;3;
70241;PMS5003;57631;52.218;0.108;2022-07-25T04:19:15;7;6;
70241;PMS5003;57631;52.218;0.108;2022-07-25T04:21:41;7;6;
70241;PMS5003;57631;52.218;0.108;2022-07-25T04:24:06;6;5;
70241;PMS5003;57631;52.218;0.108;2022-07-25T04:26:32;6;4;
70241;PMS5003;57631;52.218;0.108;2022-07-25T04:28:57;6;5;
70241;PMS5003;57631;52.218;0.108;2022-07-25T04:31:23;7;5;
70241;PMS5003;57631;52.218;0.108;2022-07-25T04:33:48;5;5;
70241;PMS5003;57631;52.218;0.108;2022-07-25T04:36:13;3;3;
70241;PMS5003;57631;52.218;0.108;2022-07-25T04:38:39;6;6;
70241;PMS5003;57631;52.218;0.108;2022-07-25T04:41:04;8;5;
70241;PMS5003;57631;52.218;0.108;2022-07-25T04:43:30;6;5;
70241;PMS5003;57631;52.218;0.108;2022-07-25T04:45:55;7;5;
70241;PMS5003;57631;52.218;0.108;2022-07-25T04:48:20;8;7;
70241;PMS5003;57631;52.218;0.108;2022-07-25T04:50:46;7;5;
70241;PMS5003;57631;52.218;0.108;2022-07-25T04:53:11;4;3;
70241;PMS5003;57631;52.218;0.108;2022-07-25T04:55:37;3;3;
70241;PMS5003;57631;52.218;0.108;2022-07-25T04:58:02;4;4;
70241;PMS5003;57631;52.218;0.108;2022-07-25T05:00:27;6;6;
70241;PMS5003;57631;52.218;0.108;2022-07-25T05:02:53;11;9;
70241;PMS5003;57631;52.218;0.108;2022-07-25T05:05:18;16;9;
70241;PMS5003;57631;52.218;0.108;2022-07-25T05:07:44;11;8;
70241;PMS5003;57631;52.218;0.108;2022-07-25T05:10:09;11;11;
70241;PMS5003;57631;52.218;0.108;2022-07-25T05:12:34;8;8;
70241;PMS5003;57631;52.218;0.108;2022-07-25T05:15:00;9;8;
70241;PMS5003;57631;52.218;0.108;2022-07-25T05:17:25;11;9;
70241;PMS5003;57631;52.218;0.108;2022-07-25T05:19:51;11;8;
70241;PMS5003;57631;52.218;0.108;2022-07-25T05:22:16;9;6;
70241;PMS5003;57631;52.218;0.108;2022-07-25T05:24:41;9;9;
70241;PMS5003;57631;52.218;0.108;2022-07-25T05:27:07;11;7;
70241;PMS5003;57631;52.218;0.108;2022-07-25T05:29:32;11;6;
70241;PMS5003;57631;52.218;0.108;2022-07-25T05:31:58;8;8;
70241;PMS5003;57631;52.218;0.108;2022-07-25T05:34:23;12;9;
70241;PMS5003;57631;52.218;0.108;2022-07-25T05:36:48;11;7;
70241;PMS5003;57631;52.218;0.108;2022-07-25T05:39:14;7;7;
70241;PMS5003;57631;52.218;0.108;2022-07-25T05:41:39;10;7;
70241;PMS5003;57631;52.218;0.108;2022-07-25T05:44:05;12;6;
70241;PMS5003;57631;52.218;0.108;2022-07-25T05:46:30;14;6;
70241;PMS5003;57631;52.218;0.108;2022-07-25T05:48:55;10;8;
70241;PMS5003;57631;52.218;0.108;2022-07-25T05:51:21;7;6;
70241;PMS5003;57631;52.218;0.108;2022-07-25T05:53:46;10;9;
70241;PMS5003;57631;52.218;0.108;2022-07-25T05:56:11;9;6;
70241;PMS5003;57631;52.218;0.108;2022-07-25T05:58:37;7;7;
70241;PMS5003;57631;52.218;0.108;2022-07-25T06:01:02;11;8;
70241;PMS5003;57631;52.218;0.108;2022-07-25T06:03:28;6;6;
70241;PMS5003;57631;52.218;0.108;2022-07-25T06:05:53;7;7;
70241;PMS5003;57631;52.218;0.108;2022-07-25T06:08:19;9;6;
70241;PMS5003;57631;52.218;0.108;2022-07-25T06:10:44;8;5;
70241;PMS5003;57631;52.218;0.108;2022-07-25T06:13:09;8;6;
70241;PMS5003;57631;52.218;0.108;2022-07-25T06:15:35;5;5;
70241;PMS5003;57631;52.218;0.108;2022-07-25T06:18:00;6;4;
70241;PMS5003;57631;52.218;0.108;2022-07-25T06:20:26;9;6;
70241;PMS5003;57631;52.218;0.108;2022-07-25T06:22:51;4;4;
70241;PMS5003;57631;52.218;0.108;2022-07-25T06:25:17;7;5;
70241;PMS5003;57631;52.218;0.108;2022-07-25T06:27:42;6;5;
70241;PMS5003;57631;52.218;0.108;2022-07-25T06:30:08;4;4;
70241;PMS5003;57631;52.218;0.108;2022-07-25T06:32:33;7;5;
70241;PMS5003;57631;52.218;0.108;2022-07-25T06:34:58;7;5;
70241;PMS5003;57631;52.218;0.108;2022-07-25T06:37:24;7;6;
70241;PMS5003;57631;52.218;0.108;2022-07-25T06:39:49;7;5;
70241;PMS5003;57631;52.218;0.108;2022-07-25T06:42:14;7;6;
70241;PMS5003;57631;52.218;0.108;2022-07-25T06:44:40;8;6;
70241;PMS5003;57631;52.218;0.108;2022-07-25T06:47:05;6;3;
70241;PMS5003;57631;52.218;0.108;2022-07-25T06:49:30;7;6;
70241;PMS5003;57631;52.218;0.108;2022-07-25T06:51:56;6;6;
70241;PMS5003;57631;52.218;0.108;2022-07-25T06:54:21;6;5;
70241;PMS5003;57631;52.218;0.108;2022-07-25T06:56:47;5;3;
70241;PMS5003;57631;52.218;0.108;2022-07-25T06:59:12;7;5;
70241;PMS5003;57631;52.218;0.108;2022-07-25T07:01:37;10;5;
70241;PMS5003;57631;52.218;0.108;2022-07-25T07:04:03;5;5;
70241;PMS5003;57631;52.218;0.108;2022-07-25T07:06:28;7;6;
70241;PMS5003;57631;52.218;0.108;2022-07-25T07:08:53;4;4;
70241;PMS5003;57631;52.218;0.108;2022-07-25T07:11:19;6;3;
70241;PMS5003;57631;52.218;0.108;2022-07-25T07:13:44;6;6;
70241;PMS5003;57631;52.218;0.108;2022-07-25T07:16:10;5;3;
70241;PMS5003;57631;52.218;0.108;2022-07-25T07:18:35;4;4;
70241;PMS5003;57631;52.218;0.108;2022-07-25T07:21:00;5;4;
70241;PMS5003;57631;52.218;0.108;2022-07-25T07:23:26;4;3;
70241;PMS5003;57631;52.218;0.108;2022-07-25T07:25:51;4;3;
70241;PMS5003;57631;52.218;0.108;2022-07-25T07:28:17;6;3;
70241;PMS5003;57631;52.218;0.108;2022-07-25T07:30:42;5;3;
70241;PMS5003;57631;52.218;0.108;2022-07-25T07:33:07;4;4;
70241;PMS5003;57631;52.218;0.108;2022-07-25T07:35:33;4;4;
70241;PMS5003;57631;52.218;0.108;2022-07-25T07:37:58;6;2;
70241;PMS5003;57631;52.218;0.108;2022-07-25T07:40:24;3;3;
70241;PMS5003;57631;52.218;0.108;2022-07-25T07:42:49;3;3;
70241;PMS5003;57631;52.218;0.108;2022-07-25T07:45:15;2;2;
70241;PMS5003;57631;52.218;0.108;2022-07-25T07:47:40;2;2;
70241;PMS5003;57631;52.218;0.108;2022-07-25T07:50:06;4;2;
70241;PMS5003;57631;52.218;0.108;2022-07-25T07:52:31;3;0;
70241;PMS5003;57631;52.218;0.108;2022-07-25T07:54:56;1;1;
70241;PMS5003;57631;52.218;0.108;2022-07-25T07:57:22;4;2;
70241;PMS5003;57631;52.218;0.108;2022-07-25T07:59:47;1;1;
70241;PMS5003;57631;52.218;0.108;2022-07-25T08:02:12;3;2;
70241;PMS5003;57631;52.218;0.108;2022-07-25T08:04:38;2;2;
70241;PMS5003;57631;52.218;0.108;2022-07-25T08:07:03;1;1;
70241;PMS5003;57631;52.218;0.108;2022-07-25T08:09:28;4;1;
70241;PMS5003;57631;52.218;0.108;2022-07-25T08:11:54;1;1;
70241;PMS5003;57631;52.218;0.108;2022-07-25T08:14:19;2;2;
70241;PMS5003;57631;52.218;0.108;2022-07-25T08:16:45;3;3;
70241;PMS5003;57631;52.218;0.108;2022-07-25T08:19:10;2;2;
70241;PMS5003;57631;52.218;0.108;2022-07-25T08:21:35;1;1;
70241;PMS5003;57631;52.218;0.108;2022-07-25T08:24:01;0;0;
70241;PMS5003;57631;52.218;0.108;2022-07-25T08:26:26;1;1;
70241;PMS5003;57631;52.218;0.108;2022-07-25T08:28:51;2;1;
70241;PMS5003;57631;52.218;0.108;2022-07-25T08:31:17;1;1;
70241;PMS5003;57631;52.218;0.108;2022-07-25T08:33:42;0;0;
70241;PMS5003;57631;52.218;0.108;2022-07-25T08:36:08;0;0;
70241;PMS5003;57631;52.218;0.108;2022-07-25T08:38:33;2;1;
70241;PMS5003;57631;52.218;0.108;2022-07-25T08:40:58;2;1;
70241;PMS5003;57631;52.218;0.108;2022-07-25T08:43:24;2;1;
70241;PMS5003;57631;52.218;0.108;2022-07-25T08:45:49;0;0;
70241;PMS5003;57631;52.218;0.108;2022-07-25T08:48:15;1;1;
70241;PMS5003;57631;52.218;0.108;2022-07-25T08:50:40;0;0;
70241;PMS5003;57631;52.218;0.108;2022-07-25T08:53:05;1;1;
70241;PMS5003;57631;52.218;0.108;2022-07-25T08:55:30;1;1;
70241;PMS5003;57631;52.218;0.108;2022-07-25T08:57:56;2;1;
70241;PMS5003;57631;52.218;0.108;2022-07-25T09:00:22;0;0;
70241;PMS5003;57631;52.218;0.108;2022-07-25T09:02:50;2;1;
70241;PMS5003;57631;52.218;0.108;2022-07-25T09:05:12;1;1;
70241;PMS5003;57631;52.218;0.108;2022-07-25T09:07:39;1;0;
70241;PMS5003;57631;52.218;0.108;2022-07-25T09:12:28;0;0;
70241;PMS5003;57631;52.218;0.108;2022-07-25T09:14:53;2;0;
70241;PMS5003;57631;52.218;0.108;2022-07-25T09:17:19;2;1;
70241;PMS5003;57631;52.218;0.108;2022-07-25T09:22:09;1;1;
70241;PMS5003;57631;52.218;0.108;2022-07-25T09:24:35;5;1;
70241;PMS5003;57631;52.218;0.108;2022-07-25T09:27:06;3;2;
70241;PMS5003;57631;52.218;0.108;2022-07-25T09:29:26;4;1;
70241;PMS5003;57631;52.218;0.108;2022-07-25T09:31:52;2;2;
70241;PMS5003;57631;52.218;0.108;2022-07-25T09:34:27;3;2;
70241;PMS5003;57631;52.218;0.108;2022-07-25T09:39:07;1;1;
70241;PMS5003;57631;52.218;0.108;2022-07-25T09:41:33;1;1;
70241;PMS5003;57631;52.218;0.108;2022-07-25T09:43:58;2;1;
70241;PMS5003;57631;52.218;0.108;2022-07-25T09:46:28;1;1;
70241;PMS5003;57631;52.218;0.108;2022-07-25T09:48:55;1;1;
70241;PMS5003;57631;52.218;0.108;2022-07-25T09:51:14;3;2;
70241;PMS5003;57631;52.218;0.108;2022-07-25T09:53:39;1;1;
70241;PMS5003;57631;52.218;0.108;2022-07-25T09:56:06;3;1;
70241;PMS5003;57631;52.218;0.108;2022-07-25T09:58:30;2;2;
70241;PMS5003;57631;52.218;0.108;2022-07-25T10:01:01;1;1;
70241;PMS5003;57631;52.218;0.108;2022-07-25T10:03:23;1;1;
70241;PMS5003;57631;52.218;0.108;2022-07-25T10:05:50;1;1;
70241;PMS5003;57631;52.218;0.108;2022-07-25T10:08:12;1;1;
70241;PMS5003;57631;52.218;0.108;2022-07-25T10:10:38;2;0;
70241;PMS5003;57631;52.218;0.108;2022-07-25T10:13:04;1;1;
70241;PMS5003;57631;52.218;0.108;2022-07-25T10:20:25;2;1;
70241;PMS5003;57631;52.218;0.108;2022-07-25T10:22:44;2;1;
70241;PMS5003;57631;52.218;0.108;2022-07-25T10:25:11;2;1;
70241;PMS5003;57631;52.218;0.108;2022-07-25T10:27:40;1;1;
70241;PMS5003;57631;52.218;0.108;2022-07-25T10:30:00;2;1;
70241;PMS5003;57631;52.218;0.108;2022-07-25T10:32:26;0;0;
70241;PMS5003;57631;52.218;0.108;2022-07-25T10:34:51;1;1;
70241;PMS5003;57631;52.218;0.108;2022-07-25T10:37:16;1;1;
70241;PMS5003;57631;52.218;0.108;2022-07-25T10:39:42;3;3;
70241;PMS5003;57631;52.218;0.108;2022-07-25T10:42:07;3;2;
70241;PMS5003;57631;52.218;0.108;2022-07-25T10:49:23;3;1;
70241;PMS5003;57631;52.218;0.108;2022-07-25T10:51:54;1;1;
70241;PMS5003;57631;52.218;0.108;2022-07-25T10:54:14;0;0;
70241;PMS5003;57631;52.218;0.108;2022-07-25T10:59:04;1;1;
70241;PMS5003;57631;52.218;0.108;2022-07-25T11:01:31;0;0;
70241;PMS5003;57631;52.218;0.108;2022-07-25T11:03:56;1;1;
70241;PMS5003;57631;52.218;0.108;2022-07-25T11:08:46;3;1;
70241;PMS5003;57631;52.218;0.108;2022-07-25T11:11:12;2;1;
70241;PMS5003;57631;52.218;0.108;2022-07-25T11:13:37;0;0;
70241;PMS5003;57631;52.218;0.108;2022-07-25T11:16:02;3;1;
70241;PMS5003;57631;52.218;0.108;2022-07-25T11:18:31;4;1;
70241;PMS5003;57631;52.218;0.108;2022-07-25T11:20:57;2;1;
70241;PMS5003;57631;52.218;0.108;2022-07-25T11:23:20;1;1;
70241;PMS5003;57631;52.218;0.108;2022-07-25T11:25:43;1;1;
70241;PMS5003;57631;52.218;0.108;2022-07-25T11:28:09;3;1;
70241;PMS5003;57631;52.218;0.108;2022-07-25T11:30:34;1;0;
70241;PMS5003;57631;52.218;0.108;2022-07-25T11:33:00;1;1;
70241;PMS5003;57631;52.218;0.108;2022-07-25T11:35:26;3;2;
70241;PMS5003;57631;52.218;0.108;2022-07-25T11:37:50;3;1;
70241;PMS5003;57631;52.218;0.108;2022-07-25T11:40:16;1;1;
70241;PMS5003;57631;52.218;0.108;2022-07-25T11:42:41;0;0;
70241;PMS5003;57631;52.218;0.108;2022-07-25T11:47:32;1;1;
70241;PMS5003;57631;52.218;0.108;2022-07-25T11:49:58;1;1;
70241;PMS5003;57631;52.218;0.108;2022-07-25T11:52:23;2;2;
70241;PMS5003;57631;52.218;0.108;2022-07-25T11:54:50;1;1;
70241;PMS5003;57631;52.218;0.108;2022-07-25T11:59:40;3;1;
70241;PMS5003;57631;52.218;0.108;2022-07-25T12:02:04;0;0;
70241;PMS5003;57631;52.218;0.108;2022-07-25T12:04:29;1;1;
70241;PMS5003;57631;52.218;0.108;2022-07-25T12:07:02;2;2;
70241;PMS5003;57631;52.218;0.108;2022-07-25T12:09:20;2;2;
70241;PMS5003;57631;52.218;0.108;2022-07-25T12:11:46;2;2;
70241;PMS5003;57631;52.218;0.108;2022-07-25T12:14:11;1;1;
70241;PMS5003;57631;52.218;0.108;2022-07-25T12:16:36;2;2;
70241;PMS5003;57631;52.218;0.108;2022-07-25T12:19:01;1;1;
70241;PMS5003;57631;52.218;0.108;2022-07-25T12:21:26;1;1;
70241;PMS5003;57631;52.218;0.108;2022-07-25T12:23:52;1;1;
70241;PMS5003;57631;52.218;0.108;2022-07-25T12:26:17;0;0;
70241;PMS5003;57631;52.218;0.108;2022-07-25T12:28:42;2;1;
70241;PMS5003;57631;52.218;0.108;2022-07-25T12:31:08;2;2;
70241;PMS5003;57631;52.218;0.108;2022-07-25T12:33:33;3;1;
70241;PMS5003;57631;52.218;0.108;2022-07-25T12:35:59;3;2;
70241;PMS5003;57631;52.218;0.108;2022-07-25T12:38:24;1;1;
70241;PMS5003;57631;52.218;0.108;2022-07-25T12:40:49;2;1;
70241;PMS5003;57631;52.218;0.108;2022-07-25T12:43:14;3;2;
70241;PMS5003;57631;52.218;0.108;2022-07-25T12:45:40;2;2;
70241;PMS5003;57631;52.218;0.108;2022-07-25T12:48:05;3;1;
70241;PMS5003;57631;52.218;0.108;2022-07-25T12:50:30;2;2;
70241;PMS5003;57631;52.218;0.108;2022-07-25T12:52:56;2;2;
70241;PMS5003;57631;52.218;0.108;2022-07-25T12:55:21;1;1;
70241;PMS5003;57631;52.218;0.108;2022-07-25T12:57:47;4;1;
70241;PMS5003;57631;52.218;0.108;2022-07-25T13:00:13;1;1;
70241;PMS5003;57631;52.218;0.108;2022-07-25T13:02:37;2;2;
70241;PMS5003;57631;52.218;0.108;2022-07-25T13:05:03;1;1;
70241;PMS5003;57631;52.218;0.108;2022-07-25T13:07:28;3;1;
70241;PMS5003;57631;52.218;0.108;2022-07-25T13:09:54;1;1;
70241;PMS5003;57631;52.218;0.108;2022-07-25T13:12:19;2;2;
70241;PMS5003;57631;52.218;0.108;2022-07-25T13:14:44;1;1;
70241;PMS5003;57631;52.218;0.108;2022-07-25T13:17:09;1;1;
70241;PMS5003;57631;52.218;0.108;2022-07-25T13:19:35;1;1;
70241;PMS5003;57631;52.218;0.108;2022-07-25T13:22:00;2;2;
70241;PMS5003;57631;52.218;0.108;2022-07-25T13:24:26;1;1;
70241;PMS5003;57631;52.218;0.108;2022-07-25T13:26:51;2;2;
70241;PMS5003;57631;52.218;0.108;2022-07-25T13:29:16;3;1;
70241;PMS5003;57631;52.218;0.108;2022-07-25T13:31:42;3;2;
70241;PMS5003;57631;52.218;0.108;2022-07-25T13:34:07;2;2;
70241;PMS5003;57631;52.218;0.108;2022-07-25T13:36:32;2;2;
70241;PMS5003;57631;52.218;0.108;2022-07-25T13:38:58;5;4;
70241;PMS5003;57631;52.218;0.108;2022-07-25T13:41:23;2;2;
70241;PMS5003;57631;52.218;0.108;2022-07-25T13:43:48;1;1;
70241;PMS5003;57631;52.218;0.108;2022-07-25T13:46:14;2;2;
70241;PMS5003;57631;52.218;0.108;2022-07-25T13:48:39;2;2;
70241;PMS5003;57631;52.218;0.108;2022-07-25T13:51:04;2;2;
70241;PMS5003;57631;52.218;0.108;2022-07-25T13:53:30;2;2;
70241;PMS5003;57631;52.218;0.108;2022-07-25T13:55:55;2;2;
70241;PMS5003;57631;52.218;0.108;2022-07-25T13:58:21;1;1;
70241;PMS5003;57631;52.218;0.108;2022-07-25T14:00:46;3;3;
70241;PMS5003;57631;52.218;0.108;2022-07-25T14:03:11;1;1;
70241;PMS5003;57631;52.218;0.108;2022-07-25T14:05:37;1;1;
70241;PMS5003;57631;52.218;0.108;2022-07-25T14:08:02;3;3;
70241;PMS5003;57631;52.218;0.108;2022-07-25T14:10:27;7;1;
70241;PMS5003;57631;52.218;0.108;2022-07-25T14:12:53;2;2;
70241;PMS5003;57631;52.218;0.108;2022-07-25T14:15:18;2;2;
70241;PMS5003;57631;52.218;0.108;2022-07-25T14:17:44;2;2;
70241;PMS5003;57631;52.218;0.108;2022-07-25T14:20:09;2;2;
70241;PMS5003;57631;52.218;0.108;2022-07-25T14:22:34;2;2;
70241;PMS5003;57631;52.218;0.108;2022-07-25T14:25:00;2;2;
70241;PMS5003;57631;52.218;0.108;2022-07-25T14:27:25;1;1;
70241;PMS5003;57631;52.218;0.108;2022-07-25T14:29:50;2;2;
70241;PMS5003;57631;52.218;0.108;2022-07-25T14:32:16;3;1;
70241;PMS5003;57631;52.218;0.108;2022-07-25T14:34:41;4;1;
70241;PMS5003;57631;52.218;0.108;2022-07-25T14:37:06;2;2;
70241;PMS5003;57631;52.218;0.108;2022-07-25T14:39:32;5;3;
70241;PMS5003;57631;52.218;0.108;2022-07-25T14:41:57;2;1;
70241;PMS5003;57631;52.218;0.108;2022-07-25T14:44:23;3;1;
70241;PMS5003;57631;52.218;0.108;2022-07-25T14:46:48;1;1;
70241;PMS5003;57631;52.218;0.108;2022-07-25T14:49:14;1;1;
70241;PMS5003;57631;52.218;0.108;2022-07-25T14:51:39;2;2;
70241;PMS5003;57631;52.218;0.108;2022-07-25T14:54:04;1;1;
70241;PMS5003;57631;52.218;0.108;2022-07-25T14:56:29;0;0;
70241;PMS5003;57631;52.218;0.108;2022-07-25T14:58:55;2;2;
70241;PMS5003;57631;52.218;0.108;2022-07-25T15:01:20;2;2;
70241;PMS5003;57631;52.218;0.108;2022-07-25T15:03:46;1;1;
70241;PMS5003;57631;52.218;0.108;2022-07-25T15:06:11;1;1;
70241;PMS5003;57631;52.218;0.108;2022-07-25T15:08:36;2;2;
70241;PMS5003;57631;52.218;0.108;2022-07-25T15:11:01;1;1;
70241;PMS5003;57631;52.218;0.108;2022-07-25T15:13:27;1;1;
70241;PMS5003;57631;52.218;0.108;2022-07-25T15:15:52;1;1;
70241;PMS5003;57631;52.218;0.108;2022-07-25T15:18:18;1;1;
70241;PMS5003;57631;52.218;0.108;2022-07-25T15:20:43;0;0;
70241;PMS5003;57631;52.218;0.108;2022-07-25T15:23:08;0;0;
70241;PMS5003;57631;52.218;0.108;2022-07-25T15:25:34;1;1;
70241;PMS5003;57631;52.218;0.108;2022-07-25T15:27:59;1;1;
70241;PMS5003;57631;52.218;0.108;2022-07-25T15:30:24;1;1;
70241;PMS5003;57631;52.218;0.108;2022-07-25T15:32:50;1;1;
70241;PMS5003;57631;52.218;0.108;2022-07-25T15:35:16;1;1;
70241;PMS5003;57631;52.218;0.108;2022-07-25T15:37:41;1;1;
70241;PMS5003;57631;52.218;0.108;2022-07-25T15:40:06;2;2;
70241;PMS5003;57631;52.218;0.108;2022-07-25T15:42:31;3;2;
70241;PMS5003;57631;52.218;0.108;2022-07-25T15:44:57;2;1;
70241;PMS5003;57631;52.218;0.108;2022-07-25T15:47:22;2;2;
70241;PMS5003;57631;52.218;0.108;2022-07-25T15:49:47;2;2;
70241;PMS5003;57631;52.218;0.108;2022-07-25T15:52:13;2;0;
70241;PMS5003;57631;52.218;0.108;2022-07-25T15:54:38;2;2;
70241;PMS5003;57631;52.218;0.108;2022-07-25T15:57:04;2;2;
70241;PMS5003;57631;52.218;0.108;2022-07-25T15:59:29;1;1;
70241;PMS5003;57631;52.218;0.108;2022-07-25T16:01:54;1;1;
70241;PMS5003;57631;52.218;0.108;2022-07-25T16:04:19;2;2;
70241;PMS5003;57631;52.218;0.108;2022-07-25T16:06:45;1;1;
70241;PMS5003;57631;52.218;0.108;2022-07-25T16:09:10;3;3;
70241;PMS5003;57631;52.218;0.108;2022-07-25T16:11:36;1;1;
70241;PMS5003;57631;52.218;0.108;2022-07-25T16:14:01;2;2;
70241;PMS5003;57631;52.218;0.108;2022-07-25T16:16:26;1;1;
70241;PMS5003;57631;52.218;0.108;2022-07-25T16:18:52;3;3;
70241;PMS5003;57631;52.218;0.108;2022-07-25T16:21:17;2;2;
70241;PMS5003;57631;52.218;0.108;2022-07-25T16:23:42;3;3;
70241;PMS5003;57631;52.218;0.108;2022-07-25T16:26:08;5;3;
70241;PMS5003;57631;52.218;0.108;2022-07-25T16:28:34;4;3;
70241;PMS5003;57631;52.218;0.108;2022-07-25T16:30:59;4;3;
70241;PMS5003;57631;52.218;0.108;2022-07-25T16:33:24;3;3;
70241;PMS5003;57631;52.218;0.108;2022-07-25T16:35:49;2;2;
70241;PMS5003;57631;52.218;0.108;2022-07-25T16:38:15;3;3;
70241;PMS5003;57631;52.218;0.108;2022-07-25T16:40:40;3;2;
70241;PMS5003;57631;52.218;0.108;2022-07-25T16:43:06;3;3;
70241;PMS5003;57631;52.218;0.108;2022-07-25T16:45:31;3;3;
70241;PMS5003;57631;52.218;0.108;2022-07-25T16:47:56;3;3;
70241;PMS5003;57631;52.218;0.108;2022-07-25T16:50:22;5;3;
70241;PMS5003;57631;52.218;0.108;2022-07-25T16:52:47;4;4;
70241;PMS5003;57631;52.218;0.108;2022-07-25T16:55:13;8;7;
70241;PMS5003;57631;52.218;0.108;2022-07-25T16:57:38;7;7;
70241;PMS5003;57631;52.218;0.108;2022-07-25T17:00:04;6;6;
70241;PMS5003;57631;52.218;0.108;2022-07-25T17:02:29;6;5;
70241;PMS5003;57631;52.218;0.108;2022-07-25T17:04:54;5;5;